Weather at Keene/Elmhirst's Resort Seaplane Base

Public forecast

Using degrees Celsius for public forecast. Weather courtesy of forecast.io.

Closest aviation weather report (METAR) to Keene/Elmhirst's Resort Seaplane Base

Closest report is Peterborough Municipal Airport, 11.3 nm (20.9 km) W.

2024/05/20 03:00 (retrieved 56 minutes ago)

CYPQ 200300Z AUTO 00000KT 9SM FEW076 16/15 A2997 RMK SLP150

Closest aviation forecast (TAF) to Keene/Elmhirst's Resort Seaplane Base

Forecast is more than 6 hours old.

Closest forecast is Peterborough Municipal Airport, 11.3 nm (20.9 km) W.

2024/05/19 20:00 (retrieved 8 hours ago)

TAF CYPQ 191940Z 1920/2002 16005KT P6SM BKN040 TEMPO 1920/2002 SCT040 BECMG 2000/2002 23005KT RMK FCST BASED ON AUTO OBS NXT FCST BY 201000Z